Home > Products > Valid Products > TAF

000
FTUS42 KTAE 051120
TAFTLH
TAF
KTLH 051120Z 0512/0612 33010KT P6SM SKC
     FM051500 31016G25KT P6SM SKC
     FM060000 30005KT P6SM SKC=



000
FTUS42 KTAE 051120
TAFVLD
TAF
KVLD 051120Z 0512/0612 31006KT P6SM SKC
     FM051500 32013G22KT P6SM SKC
     FM052300 32005KT P6SM SKC=



000
FTUS42 KTAE 051120
TAFDHN
TAF
KDHN 051120Z 0512/0612 31010KT P6SM SKC
     FM051500 31017G26KT P6SM SKC
     FM060000 31005KT P6SM SKC=



000
FTUS42 KTAE 051120
TAFDHN
TAF
KDHN 051120Z 0512/0612 31010KT P6SM SKC
     FM051500 31017G26KT P6SM SKC
     FM060000 31005KT P6SM SKC=



000
FTUS42 KTAE 051120
TAFVLD
TAF
KVLD 051120Z 0512/0612 31006KT P6SM SKC
     FM051500 32013G22KT P6SM SKC
     FM052300 32005KT P6SM SKC=



000
FTUS42 KTAE 051120
TAFABY
TAF
KABY 051120Z 0512/0612 30010KT P6SM SKC
     FM051500 31017G26KT P6SM SKC
     FM060000 31005KT P6SM SKC=



000
FTUS42 KTAE 051120
TAFTLH
TAF
KTLH 051120Z 0512/0612 33010KT P6SM SKC
     FM051500 31016G25KT P6SM SKC
     FM060000 30005KT P6SM SKC=



000
FTUS42 KTAE 051120
TAFABY
TAF
KABY 051120Z 0512/0612 30010KT P6SM SKC
     FM051500 31017G26KT P6SM SKC
     FM060000 31005KT P6SM SKC=



000
FTUS42 KTAE 050529
TAFABY
TAF
KABY 050529Z 0506/0606 26005KT P6SM BKN080
     FM050800 29006KT P6SM SKC
     FM051500 31017G26KT P6SM SKC
     FM060000 31005KT P6SM SKC=



000
FTUS42 KTAE 050529
TAFDHN
TAF
KDHN 050529Z 0506/0606 27007KT P6SM BKN080
     FM050800 30007KT P6SM SKC
     FM051500 31017G26KT P6SM SKC
     FM060000 31005KT P6SM SKC=



000
FTUS42 KTAE 050529
TAFTLH
TAF
KTLH 050529Z 0506/0606 28008KT P6SM SKC
     FM051500 31016G25KT P6SM SKC
     FM060000 30005KT P6SM SKC=



000
FTUS42 KTAE 050529
TAFVLD
TAF
KVLD 050529Z 0506/0606 32006KT P6SM SKC
     FM051500 34013G22KT P6SM SKC
     FM052300 34005KT P6SM SKC=



000
FTUS42 KTAE 042320
TAFTLH
TAF
KTLH 042320Z 0500/0524 30006KT P6SM SKC
     FM051500 30016G25KT P6SM SKC=



000
FTUS42 KTAE 042320
TAFABY
TAF
KABY 042320Z 0500/0524 30006KT P6SM SKC
     FM051500 31017G24KT P6SM SKC=



000
FTUS42 KTAE 042320
TAFDHN
TAF
KDHN 042320Z 0500/0524 31007KT P6SM SKC
     FM051500 31017G25KT P6SM SKC=



000
FTUS42 KTAE 042320
TAFVLD
TAF
KVLD 042320Z 0500/0524 31005KT P6SM SKC
     FM051500 34012G17KT P6SM SKC=



000
FTUS42 KTAE 042320
TAFTLH
TAF
KTLH 042320Z 0500/0524 30006KT P6SM SKC
     FM051500 30016G25KT P6SM SKC=



000
FTUS42 KTAE 042320
TAFABY
TAF
KABY 042320Z 0500/0524 30006KT P6SM SKC
     FM051500 31017G24KT P6SM SKC=



000
FTUS42 KTAE 042320
TAFDHN
TAF
KDHN 042320Z 0500/0524 31007KT P6SM SKC
     FM051500 31017G25KT P6SM SKC=



000
FTUS42 KTAE 042320
TAFVLD
TAF
KVLD 042320Z 0500/0524 31005KT P6SM SKC
     FM051500 34012G17KT P6SM SKC=



000
FTUS42 KTAE 041731
TAFVLD
TAF
KVLD 041731Z 0418/0518 34008KT P6SM SCT050
     FM050000 31003KT P6SM SKC
     FM051500 34010KT P6SM SKC=



000
FTUS42 KTAE 041731
TAFDHN
TAF
KDHN 041731Z 0418/0518 32012KT P6SM SCT050
     FM050000 28005KT P6SM SKC
     FM051500 31015G24KT P6SM SKC=



000
FTUS42 KTAE 041731
TAFABY
TAF
KABY 041731Z 0418/0518 30011KT P6SM FEW050
     FM050000 27004KT P6SM SKC
     FM051500 30015G24KT P6SM SKC=



000
FTUS42 KTAE 041731
TAFTLH
TAF
KTLH 041731Z 0418/0518 32010KT P6SM SCT050
     FM050000 29003KT P6SM SKC
     FM051500 30014G22KT P6SM SKC=



000
FTUS42 KTAE 041120
TAFDHN
TAF
KDHN 041120Z 0412/0512 34008KT P6SM SKC
     FM041400 32012G18KT P6SM SKC
     FM050000 28005KT P6SM SKC=



000
FTUS42 KTAE 041120
TAFABY
TAF
KABY 041120Z 0412/0512 33004KT P6SM SCT060 SCT080
     FM041400 31012G18KT P6SM SKC
     FM050000 28005KT P6SM SKC=



000
FTUS42 KTAE 041120
TAFDHN
TAF
KDHN 041120Z 0412/0512 34008KT P6SM SKC
     FM041400 32012G18KT P6SM SKC
     FM050000 28005KT P6SM SKC=



000
FTUS42 KTAE 041120
TAFABY
TAF
KABY 041120Z 0412/0512 33004KT P6SM SCT060 SCT080
     FM041400 31012G18KT P6SM SKC
     FM050000 28005KT P6SM SKC=



000
FTUS42 KTAE 041120
TAFVLD
TAF
KVLD 041120Z 0412/0512 VRB03KT P6SM FEW035 FEW050 OVC060
     FM041500 32010G15KT P6SM SCT040
     FM050000 32002KT P6SM SKC=



000
FTUS42 KTAE 041120
TAFTLH
TAF
KTLH 041120Z 0412/0512 32006KT P6SM SCT040 BKN050
     FM041500 33012G18KT P6SM SCT040
     FM050000 32005KT P6SM SKC=



000
FTUS42 KTAE 041120
TAFTLH
TAF
KTLH 041120Z 0412/0512 32006KT P6SM SCT040 BKN050
     FM041500 33012G18KT P6SM SCT040
     FM050000 32005KT P6SM SKC=



000
FTUS42 KTAE 041120
TAFVLD
TAF
KVLD 041120Z 0412/0512 VRB03KT P6SM FEW035 FEW050 OVC060
     FM041500 32010G15KT P6SM SCT040
     FM050000 32002KT P6SM SKC=



000
FTUS42 KTAE 040522
TAFDHN
TAF
KDHN 040522Z 0406/0506 32008KT P6SM BKN050
     FM041400 32012G18KT P6SM SCT040
     FM050000 28005KT P6SM SKC=



000
FTUS42 KTAE 040522
TAFABY
TAF
KABY 040522Z 0406/0506 24004KT P6SM BKN045
     FM041400 31012G18KT P6SM SCT040
     FM050000 28005KT P6SM SKC=



000
FTUS42 KTAE 040522
TAFTLH
TAF
KTLH 040522Z 0406/0506 29003KT P6SM SCT025
      TEMPO 0409/0413 BKN025
     FM041500 33012G18KT P6SM SCT040
     FM050000 32005KT P6SM SKC=



000
FTUS42 KTAE 040522
TAFVLD
TAF
KVLD 040522Z 0406/0506 00000KT P6SM SCT035 BKN070 OVC090
      TEMPO 0409/0413 BKN025
     FM041500 32010G15KT P6SM SCT040
     FM050000 32002KT P6SM SKC=



000
FTUS42 KTAE 040245 AAA
TAFVLD
TAF AMD
KVLD 040245Z 0403/0424 22003KT P6SM SCT040 BKN250
      TEMPO 0403/0406 VRB10G20KT 3SM TSRA BKN015CB
     FM040600 24003KT P6SM BKN025
     FM041500 34008KT P6SM SCT040=



000
FTUS42 KTAE 040245 AAA
TAFVLD
TAF AMD
KVLD 040245Z 0403/0424 22003KT P6SM SCT040 BKN250
      TEMPO 0403/0406 VRB10G20KT 3SM TSRA BKN015CB
     FM040600 24003KT P6SM BKN025
     FM041500 34008KT P6SM SCT040=



000
FTUS42 KTAE 040244 AAA
TAFABY
TAF AMD
KABY 040244Z 0403/0424 25004KT P6SM TS BKN040CB
      TEMPO 0403/0404 27020G35KT 2SM +TSRAGR BKN025CB
     FM040400 28003KT P6SM BKN040
     FM041200 32010KT P6SM SCT040=



000
FTUS42 KTAE 040244 AAA
TAFABY
TAF AMD
KABY 040244Z 0403/0424 25004KT P6SM TS BKN040CB
      TEMPO 0403/0404 27020G35KT 2SM +TSRAGR BKN025CB
     FM040400 28003KT P6SM BKN040
     FM041200 32010KT P6SM SCT040=



000
FTUS42 KTAE 040239 AAA
TAFDHN
TAF AMD
KDHN 040239Z 0403/0424 33007KT P6SM BKN050
     FM041200 32010KT P6SM SCT040=



000
FTUS42 KTAE 040239 AAA
TAFDHN
TAF AMD
KDHN 040239Z 0403/0424 33007KT P6SM BKN050
     FM041200 32010KT P6SM SCT040=



000
FTUS42 KTAE 040238 AAA
TAFTLH
TAF AMD
KTLH 040238Z 0403/0424 24005KT P6SM TS SCT040CB BKN250
     FM040500 27003KT P6SM BKN040
      TEMPO 0409/0413 BKN025
     FM041500 33012KT P6SM SCT040=



000
FTUS42 KTAE 040238 AAA
TAFTLH
TAF AMD
KTLH 040238Z 0403/0424 24005KT P6SM TS SCT040CB BKN250
     FM040500 27003KT P6SM BKN040
      TEMPO 0409/0413 BKN025
     FM041500 33012KT P6SM SCT040=



000
FTUS42 KTAE 032320
TAFTLH
TAF
KTLH 032320Z 0400/0424 24005KT P6SM TS SCT040CB BKN250
      TEMPO 0400/0403 VRB10G20KT 3SM TSRA BKN015CB
     FM040300 27003KT P6SM BKN025
     FM041500 33012KT P6SM SCT040=



000
FTUS42 KTAE 032320
TAFABY
TAF
KABY 032320Z 0400/0424 27004KT P6SM BKN040
      TEMPO 0400/0403 3SM TSRA BKN025CB
     FM040300 28003KT P6SM BKN040
     FM041200 32010KT P6SM SCT040=



000
FTUS42 KTAE 032320
TAFTLH
TAF
KTLH 032320Z 0400/0424 24005KT P6SM TS SCT040CB BKN250
      TEMPO 0400/0403 VRB10G20KT 3SM TSRA BKN015CB
     FM040300 27003KT P6SM BKN025
     FM041500 33012KT P6SM SCT040=



000
FTUS42 KTAE 032320
TAFVLD
TAF
KVLD 032320Z 0400/0424 20004KT P6SM TS SCT040CB BKN250
      TEMPO 0400/0404 VRB10G20KT 3SM TSRA BKN015CB
     FM040400 24003KT P6SM BKN025
     FM041500 34008KT P6SM SCT040=



000
FTUS42 KTAE 032320
TAFVLD
TAF
KVLD 032320Z 0400/0424 20004KT P6SM TS SCT040CB BKN250
      TEMPO 0400/0404 VRB10G20KT 3SM TSRA BKN015CB
     FM040400 24003KT P6SM BKN025
     FM041500 34008KT P6SM SCT040=



000
FTUS42 KTAE 032320
TAFDHN
TAF
KDHN 032320Z 0400/0424 33004KT P6SM BKN040
      TEMPO 0400/0403 3SM TSRA BKN025CB
     FM040300 32006KT P6SM BKN040
     FM041200 32010KT P6SM SCT040=



000
FTUS42 KTAE 032320
TAFDHN
TAF
KDHN 032320Z 0400/0424 33004KT P6SM BKN040
      TEMPO 0400/0403 3SM TSRA BKN025CB
     FM040300 32006KT P6SM BKN040
     FM041200 32010KT P6SM SCT040=



000
FTUS42 KTAE 032320
TAFABY
TAF
KABY 032320Z 0400/0424 27004KT P6SM BKN040
      TEMPO 0400/0403 3SM TSRA BKN025CB
     FM040300 28003KT P6SM BKN040
     FM041200 32010KT P6SM SCT040=



000
FTUS42 KTAE 032100 AAA
TAFVLD
TAF AMD
KVLD 032100Z 0321/0418 19004KT P6SM VCTS SCT040CB
      TEMPO 0321/0324 VRB15G20KT 2SM +TSRA OVC020CB
     FM040600 VRB03KT P6SM OVC007
     FM041400 36006KT P6SM SCT040=



000
FTUS42 KTAE 031721
TAFABY
TAF
KABY 031721Z 0318/0418 27012KT P6SM VCTS BKN035CB
      TEMPO 0321/0401 1SM +TSRA OVC020CB
     FM040300 29005KT P6SM BKN012
     FM040600 33006KT P6SM BKN040=



000
FTUS42 KTAE 031721
TAFDHN
TAF
KDHN 031721Z 0318/0418 24006KT P6SM VCTS SCT040CB BKN070
      TEMPO 0321/0401 1SM +TSRA OVC020CB
     FM040200 28006KT P6SM BKN040
     FM040600 33009KT P6SM BKN040=



000
FTUS42 KTAE 031721
TAFVLD
TAF
KVLD 031721Z 0318/0418 19004KT P6SM VCTS SCT040CB
      TEMPO 0320/0324 2SM +TSRA OVC020CB
     FM040600 VRB03KT P6SM OVC007
     FM041400 36006KT P6SM SCT040=



000
FTUS42 KTAE 031721
TAFTLH
TAF
KTLH 031721Z 0318/0418 24008KT P6SM VCTS BKN040CB
      TEMPO 0319/0322 1 1/2SM +TSRA OVC020CB
     FM040000 26003KT P6SM OVC025
     FM040900 34003KT P6SM OVC007
     FM041300 33006KT P6SM SCT040=



000
FTUS42 KTAE 031342 AAA
TAFTLH
TAF AMD
KTLH 031342Z 0314/0412 28006KT P6SM BKN006
     FM031500 24007KT P6SM BKN030
     FM031800 24008KT 5SM TSRA BKN035CB
     FM040300 26003KT P6SM OVC025
     FM040900 34003KT P6SM OVC007=



000
FTUS42 KTAE 031342 AAA
TAFVLD
TAF AMD
KVLD 031342Z 0314/0412 19004KT P6SM SCT012
      TEMPO 0314/0315 BKN012
     FM031500 21007KT P6SM BKN030
     FM032100 24008KT 5SM TSRA BKN035CB
     FM040500 00000KT P6SM -RA BKN040
     FM040600 19002KT P6SM OVC007=



000
FTUS42 KTAE 031138
TAFTLH
TAF
KTLH 031138Z 0312/0412 00000KT 1/2SM FG VV002
      TEMPO 0313/0315 1SM BR OVC004
     FM031500 24007KT P6SM BKN040
     FM031800 24008KT 5SM TSRA BKN035CB
     FM040300 26003KT P6SM OVC025
     FM040900 34003KT P6SM OVC007=



000
FTUS42 KTAE 031138
TAFTLH
TAF
KTLH 031138Z 0312/0412 00000KT 1/2SM FG VV002
      TEMPO 0313/0315 1SM BR OVC004
     FM031500 24007KT P6SM BKN040
     FM031800 24008KT 5SM TSRA BKN035CB
     FM040300 26003KT P6SM OVC025
     FM040900 34003KT P6SM OVC007=



000
FTUS42 KTAE 031138
TAFABY
TAF
KABY 031138Z 0312/0412 27005KT P6SM BKN035
      TEMPO 0312/0314 3SM BR SCT007 BKN015
     FM031500 24008KT P6SM BKN030
     FM031900 27012KT 5SM TSRA BKN035CB
     FM040000 24005KT P6SM SCT040 BKN100
     FM040900 33004KT P6SM OVC050=



000
FTUS42 KTAE 031138
TAFDHN
TAF
KDHN 031138Z 0312/0412 24006KT P6SM SCT008 OVC035
      TEMPO 0312/0314 3SM BR BKN008
     FM031500 24007KT P6SM BKN030
     FM031800 26010KT 5SM TSRA BKN035CB
     FM040000 28006KT P6SM SCT050 BKN250
     FM040600 33007KT P6SM OVC050=



000
FTUS42 KTAE 031138
TAFVLD
TAF
KVLD 031138Z 0312/0412 19004KT 1 1/2SM BR OVC002
      TEMPO 0312/0314 1/2SM FG VV002
     FM031500 21007KT P6SM BKN040
     FM032100 24008KT 5SM TSRA BKN035CB
     FM040500 00000KT P6SM -RA BKN040
     FM040600 19002KT P6SM OVC007=



000
FTUS42 KTAE 031120
TAFVLD
TAF
KVLD 031120Z 0312/0412 00000KT 6SM BR SCT018
      TEMPO 0312/0314 3SM BR BKN018
     FM031500 21007KT P6SM BKN040
     FM032100 24008KT 5SM TSRA BKN035CB
     FM040500 00000KT P6SM -RA BKN040
     FM040600 19002KT P6SM OVC007=



000
FTUS42 KTAE 031120
TAFABY
TAF
KABY 031120Z 0312/0412 00000KT P6SM BKN007
      TEMPO 0312/0314 3SM BR SCT007 BKN015
     FM031500 24008KT P6SM BKN030
     FM031900 27012KT 5SM TSRA BKN035CB
     FM040000 24005KT P6SM SCT040 BKN100
     FM040900 33004KT P6SM OVC050=



000
FTUS42 KTAE 031120
TAFDHN
TAF
KDHN 031120Z 0312/0412 24006KT 6SM BR SCT004 OVC009
      TEMPO 0312/0314 2SM BR BKN004 OVC009
     FM031500 24007KT P6SM BKN030
     FM031800 26010KT 5SM TSRA BKN035CB
     FM040000 28006KT P6SM SCT050 BKN250
     FM040600 33007KT P6SM OVC050=



000
FTUS42 KTAE 031120
TAFTLH
TAF
KTLH 031120Z 0312/0412 00000KT 2SM BR BKN005
      TEMPO 0312/0313 1/2SM FG VV002
     FM031500 24007KT P6SM BKN040
     FM031800 24008KT 5SM TSRA BKN035CB
     FM040300 26003KT P6SM OVC025
     FM040900 34003KT P6SM OVC007=



000
FTUS42 KTAE 030947 AAB
TAFTLH
TAF AMD
KTLH 030947Z 0310/0406 00000KT 1SM BR BKN005
      TEMPO 0310/0313 1/2SM FG VV002
     FM031500 24007KT P6SM BKN040
     FM031800 24008KT 5SM TSRA BKN035CB
     FM040300 26003KT P6SM OVC025=



000
FTUS42 KTAE 030927 AAA
TAFABY
TAF AMD
KABY 030927Z 0309/0406 00000KT P6SM BKN007
      TEMPO 0309/0313 3SM BR SCT007 BKN015
     FM031500 24008KT P6SM BKN030
     FM031900 27012KT 5SM TSRA BKN035CB
     FM040000 24005KT P6SM SCT040 BKN100=



000
FTUS42 KTAE 030917 AAA
TAFDHN
TAF AMD
KDHN 030917Z 0309/0406 24006KT 6SM BR BKN004 OVC008
      TEMPO 0310/0314 2SM BR SCT004 BKN008
     FM031500 24007KT P6SM BKN030
     FM031800 26010KT 5SM TSRA BKN035CB
     FM040000 28006KT P6SM BKN250=



000
FTUS42 KTAE 030916 AAA
TAFVLD
TAF AMD
KVLD 030916Z 0309/0406 00000KT 6SM BR BKN018
      TEMPO 0310/0314 3SM BR BKN007
     FM031500 21007KT P6SM BKN040
     FM032100 24008KT 5SM TSRA BKN035CB
     FM040500 00000KT P6SM -RA BKN040=



000
FTUS42 KTAE 030909 AAA
TAFTLH
TAF AMD
KTLH 030909Z 0309/0406 00000KT 3SM BR BKN006
      TEMPO 0309/0313 2SM BR BKN002
     FM031500 24007KT P6SM BKN040
     FM031800 24008KT 5SM TSRA BKN035CB
     FM040300 26003KT P6SM OVC025=



000
FTUS42 KTAE 030525 CCA
TAFDHN
TAF COR
KDHN 030525Z 0306/0406 21005KT P6SM SCT009 BKN015 BKN250
     FM030900 00000KT 4SM BR BKN015
      TEMPO 0309/0313 2SM BR SCT004 BKN007
     FM031500 24007KT P6SM BKN030
     FM031800 26010KT 5SM TSRA BKN035CB
     FM040000 28006KT P6SM BKN250=



000
FTUS42 KTAE 030524
TAFTLH
TAF
KTLH 030524Z 0306/0406 VRB03KT P6SM BKN250
     FM031000 00000KT 4SM BR BKN015
      TEMPO 0310/0314 1SM BR SCT002 BKN005
     FM031500 24007KT P6SM BKN040
     FM031800 24008KT 5SM TSRA BKN035CB
     FM040300 26003KT P6SM OVC025=



000
FTUS42 KTAE 030524
TAFABY
TAF
KABY 030524Z 0306/0406 18003KT P6SM BKN250
     FM031000 00000KT 5SM BR BKN015
     FM031500 24008KT P6SM BKN030
     FM031900 27012KT 5SM TSRA BKN035CB
     FM040000 24005KT P6SM SCT040 BKN100=



000
FTUS42 KTAE 030524
TAFVLD
TAF
KVLD 030524Z 0306/0406 00000KT P6SM BKN250
     FM031000 00000KT 4SM BR BKN015
      TEMPO 0310/0314 1SM BR SCT002 BKN005
     FM031500 21007KT P6SM BKN040
     FM032100 24008KT 5SM TSRA BKN035CB
     FM040500 00000KT P6SM -RA BKN040=



000
FTUS42 KTAE 030524
TAFDHN
TAF
KDHN 030524Z 0306/0406 21005KT P6SM SCT009 SCT015 BKN250
     FM030900 00000KT 4SM BR BKN015
      TEMPO 0309/0313 2SM BR SCT004 BKN007
     FM031500 24007KT P6SM BKN030
     FM031800 26010KT 5SM TSRA BKN035CB
     FM040000 28006KT P6SM BKN250=



000
FTUS42 KTAE 022333
TAFTLH
TAF
KTLH 022333Z 0300/0324 VRB03KT P6SM SCT040 BKN250
     FM030900 00000KT 4SM BR BKN015
      TEMPO 0310/0313 1SM BR SCT002 BKN005
     FM031500 24007KT P6SM BKN040
     FM031800 24008KT 5SM TSRA BKN035CB=



000
FTUS42 KTAE 022333
TAFDHN
TAF
KDHN 022333Z 0300/0324 21005KT P6SM SCT040 BKN250
     FM030900 00000KT 4SM BR BKN015
      TEMPO 0310/0313 2SM BR SCT004 BKN007
     FM031500 24007KT P6SM BKN030
     FM031800 26010KT 5SM TSRA BKN035CB=



000
FTUS42 KTAE 022333
TAFABY
TAF
KABY 022333Z 0300/0324 20003KT P6SM SCT040 BKN250
     FM030900 00000KT 5SM BR BKN015
     FM031500 24008KT P6SM BKN030
     FM032000 27012KT 5SM TSRA BKN035CB=



000
FTUS42 KTAE 022333
TAFVLD
TAF
KVLD 022333Z 0300/0324 20003KT P6SM SCT040 BKN250
     FM030900 00000KT 4SM BR BKN015
      TEMPO 0310/0313 1SM BR SCT002 BKN005
     FM031500 21007KT P6SM BKN040
     FM031800 24008KT 5SM TSRA BKN035CB=



000
FTUS42 KTAE 022333
TAFTLH
TAF
KTLH 022333Z 0300/0324 VRB03KT P6SM SCT040 BKN250
     FM030900 00000KT 4SM BR BKN015
      TEMPO 0310/0313 1SM BR SCT002 BKN005
     FM031500 24007KT P6SM BKN040
     FM031800 24008KT 5SM TSRA BKN035CB=



000
FTUS42 KTAE 021730
TAFABY
TAF
KABY 021730Z 0218/0318 22010KT P6SM VCSH BKN040 OVC100
      TEMPO 0220/0224 5SM -TSRA BKN035CB
     FM030100 26006KT P6SM SCT050 BKN100
     FM030900 22003KT 5SM BR OVC015
     FM031400 24011KT P6SM VCTS BKN025CB=



000
FTUS42 KTAE 021730
TAFTLH
TAF
KTLH 021730Z 0218/0318 18008KT P6SM SCT025 BKN050
     FM030300 24002KT P6SM OVC025
     FM030900 19002KT 3SM BR OVC007
     FM031400 24010KT P6SM OVC025=



000
FTUS42 KTAE 021730
TAFDHN
TAF
KDHN 021730Z 0218/0318 18010KT P6SM VCTS BKN050CB OVC100
      TEMPO 0220/0224 5SM -TSRA BKN035CB
     FM030200 24006KT P6SM SCT050 BKN100
     FM030600 22005KT 5SM BR OVC007
     FM031400 25010KT P6SM VCTS BKN030CB=



000
FTUS42 KTAE 021730
TAFVLD
TAF
KVLD 021730Z 0218/0318 18008KT P6SM SCT035
     FM021900 19008KT P6SM VCTS BKN040CB
      TEMPO 0219/0222 5SM -TSRA BKN030CB
     FM030000 00000KT P6SM OVC250
     FM030600 19002KT 5SM BR OVC007
     FM031400 21007KT P6SM BKN035=



000
FTUS42 KTAE 021330 AAA
TAFDHN
TAF AMD
KDHN 021330Z 0214/0312 20009KT P6SM SCT025 BKN050
     FM021800 21010KT P6SM VCTS BKN050CB OVC100
      TEMPO 0220/0224 P6SM -TSRA BKN035CB
     FM030100 24006KT P6SM SCT050 BKN100
     FM030600 22005KT 5SM BR OVC007=



000
FTUS42 KTAE 021330 AAA
TAFTLH
TAF AMD
KTLH 021330Z 0214/0312 18008KT P6SM SCT025 BKN050
     FM030300 24002KT P6SM OVC025
     FM030600 19002KT 5SM BR OVC007=



    US Dept of Commerce
    National Oceanic and Atmospheric Administration
    National Weather Service
    1325 East West Highway
    Silver Spring, MD 20910
    Page Author: NWS Internet Services Team
Disclaimer
Information Quality
Credits
Glossary
Privacy Policy
Freedom of Information Act (FOIA)
About Us
Career Opportunities